sensor_id;sensor_type;location;lat;lon;timestamp;P1;durP1;ratioP1;P2;durP2;ratioP2
20832;SDS011;56075;51.264;7.150;2024-03-02T00:01:20;4.57;;;1.50;;
20832;SDS011;56075;51.264;7.150;2024-03-02T00:03:52;5.87;;;2.00;;
20832;SDS011;56075;51.264;7.150;2024-03-02T00:06:23;3.90;;;1.40;;
20832;SDS011;56075;51.264;7.150;2024-03-02T00:08:56;3.55;;;1.80;;
20832;SDS011;56075;51.264;7.150;2024-03-02T00:11:29;3.92;;;1.50;;
20832;SDS011;56075;51.264;7.150;2024-03-02T00:14:00;1.88;;;1.25;;
20832;SDS011;56075;51.264;7.150;2024-03-02T00:16:31;2.53;;;1.08;;
20832;SDS011;56075;51.264;7.150;2024-03-02T00:19:03;1.52;;;1.02;;
20832;SDS011;56075;51.264;7.150;2024-03-02T00:21:36;3.83;;;1.20;;
20832;SDS011;56075;51.264;7.150;2024-03-02T00:24:12;2.83;;;1.20;;
20832;SDS011;56075;51.264;7.150;2024-03-02T00:26:54;3.50;;;1.17;;
20832;SDS011;56075;51.264;7.150;2024-03-02T00:29:25;2.77;;;1.00;;
20832;SDS011;56075;51.264;7.150;2024-03-02T00:31:58;2.47;;;1.00;;
20832;SDS011;56075;51.264;7.150;2024-03-02T00:34:31;3.17;;;1.10;;
20832;SDS011;56075;51.264;7.150;2024-03-02T00:37:03;3.97;;;1.30;;
20832;SDS011;56075;51.264;7.150;2024-03-02T00:39:34;3.05;;;1.00;;
20832;SDS011;56075;51.264;7.150;2024-03-02T00:42:06;2.50;;;1.17;;
20832;SDS011;56075;51.264;7.150;2024-03-02T00:44:37;2.88;;;1.30;;
20832;SDS011;56075;51.264;7.150;2024-03-02T00:47:08;1.30;;;1.00;;
20832;SDS011;56075;51.264;7.150;2024-03-02T00:49:39;1.80;;;1.00;;
20832;SDS011;56075;51.264;7.150;2024-03-02T00:52:10;1.33;;;0.90;;
20832;SDS011;56075;51.264;7.150;2024-03-02T00:54:43;2.30;;;1.10;;
20832;SDS011;56075;51.264;7.150;2024-03-02T00:57:15;2.13;;;1.13;;
20832;SDS011;56075;51.264;7.150;2024-03-02T00:59:46;1.45;;;1.02;;
20832;SDS011;56075;51.264;7.150;2024-03-02T01:02:19;3.07;;;1.00;;
20832;SDS011;56075;51.264;7.150;2024-03-02T01:04:50;1.70;;;0.90;;
20832;SDS011;56075;51.264;7.150;2024-03-02T01:07:22;1.80;;;1.17;;
20832;SDS011;56075;51.264;7.150;2024-03-02T01:09:53;2.87;;;1.13;;
20832;SDS011;56075;51.264;7.150;2024-03-02T01:12:24;1.37;;;0.90;;
20832;SDS011;56075;51.264;7.150;2024-03-02T01:14:55;1.80;;;1.10;;
20832;SDS011;56075;51.264;7.150;2024-03-02T01:17:26;1.88;;;0.90;;
20832;SDS011;56075;51.264;7.150;2024-03-02T01:19:58;1.73;;;0.97;;
20832;SDS011;56075;51.264;7.150;2024-03-02T01:22:29;3.80;;;1.00;;
20832;SDS011;56075;51.264;7.150;2024-03-02T01:25:00;2.33;;;0.93;;
20832;SDS011;56075;51.264;7.150;2024-03-02T01:27:31;4.13;;;1.00;;
20832;SDS011;56075;51.264;7.150;2024-03-02T01:30:02;2.27;;;1.03;;
20832;SDS011;56075;51.264;7.150;2024-03-02T01:32:33;3.00;;;0.88;;
20832;SDS011;56075;51.264;7.150;2024-03-02T01:35:05;1.67;;;0.95;;
20832;SDS011;56075;51.264;7.150;2024-03-02T01:37:37;2.55;;;1.00;;
20832;SDS011;56075;51.264;7.150;2024-03-02T01:40:08;2.30;;;0.90;;
20832;SDS011;56075;51.264;7.150;2024-03-02T01:42:40;2.47;;;1.00;;
20832;SDS011;56075;51.264;7.150;2024-03-02T01:45:12;4.05;;;1.10;;
20832;SDS011;56075;51.264;7.150;2024-03-02T01:47:43;1.80;;;1.00;;
20832;SDS011;56075;51.264;7.150;2024-03-02T01:50:14;2.77;;;0.80;;
20832;SDS011;56075;51.264;7.150;2024-03-02T01:52:45;4.43;;;0.88;;
20832;SDS011;56075;51.264;7.150;2024-03-02T01:55:17;2.80;;;1.13;;
20832;SDS011;56075;51.264;7.150;2024-03-02T01:57:48;3.27;;;1.13;;
20832;SDS011;56075;51.264;7.150;2024-03-02T02:00:21;2.00;;;1.03;;
20832;SDS011;56075;51.264;7.150;2024-03-02T02:02:53;2.23;;;0.90;;
20832;SDS011;56075;51.264;7.150;2024-03-02T02:05:25;2.33;;;1.10;;
20832;SDS011;56075;51.264;7.150;2024-03-02T02:07:56;3.17;;;1.20;;
20832;SDS011;56075;51.264;7.150;2024-03-02T02:10:29;2.22;;;0.90;;
20832;SDS011;56075;51.264;7.150;2024-03-02T02:13:00;6.68;;;1.00;;
20832;SDS011;56075;51.264;7.150;2024-03-02T02:15:31;3.50;;;1.03;;
20832;SDS011;56075;51.264;7.150;2024-03-02T02:18:05;2.15;;;1.02;;
20832;SDS011;56075;51.264;7.150;2024-03-02T02:20:36;1.97;;;1.10;;
20832;SDS011;56075;51.264;7.150;2024-03-02T02:23:08;1.50;;;0.80;;
20832;SDS011;56075;51.264;7.150;2024-03-02T02:25:40;3.47;;;0.90;;
20832;SDS011;56075;51.264;7.150;2024-03-02T02:28:11;2.70;;;0.93;;
20832;SDS011;56075;51.264;7.150;2024-03-02T02:30:42;1.83;;;0.93;;
20832;SDS011;56075;51.264;7.150;2024-03-02T02:33:14;2.97;;;1.10;;
20832;SDS011;56075;51.264;7.150;2024-03-02T02:35:45;2.73;;;1.03;;
20832;SDS011;56075;51.264;7.150;2024-03-02T02:38:16;3.30;;;1.00;;
20832;SDS011;56075;51.264;7.150;2024-03-02T02:40:47;1.83;;;0.90;;
20832;SDS011;56075;51.264;7.150;2024-03-02T02:43:18;1.77;;;0.80;;
20832;SDS011;56075;51.264;7.150;2024-03-02T02:45:50;4.47;;;1.00;;
20832;SDS011;56075;51.264;7.150;2024-03-02T02:48:21;1.70;;;0.70;;
20832;SDS011;56075;51.264;7.150;2024-03-02T02:50:52;1.77;;;1.00;;
20832;SDS011;56075;51.264;7.150;2024-03-02T02:53:23;2.92;;;1.10;;
20832;SDS011;56075;51.264;7.150;2024-03-02T02:55:54;1.88;;;0.90;;
20832;SDS011;56075;51.264;7.150;2024-03-02T02:58:25;1.75;;;0.90;;
20832;SDS011;56075;51.264;7.150;2024-03-02T03:00:56;4.38;;;1.10;;
20832;SDS011;56075;51.264;7.150;2024-03-02T03:03:27;2.10;;;1.13;;
20832;SDS011;56075;51.264;7.150;2024-03-02T03:05:58;2.08;;;0.90;;
20832;SDS011;56075;51.264;7.150;2024-03-02T03:08:29;1.90;;;0.93;;
20832;SDS011;56075;51.264;7.150;2024-03-02T03:11:00;2.85;;;1.00;;
20832;SDS011;56075;51.264;7.150;2024-03-02T03:13:32;3.13;;;0.98;;
20832;SDS011;56075;51.264;7.150;2024-03-02T03:16:04;3.25;;;1.00;;
20832;SDS011;56075;51.264;7.150;2024-03-02T03:18:36;1.35;;;0.85;;
20832;SDS011;56075;51.264;7.150;2024-03-02T03:21:07;3.60;;;1.10;;
20832;SDS011;56075;51.264;7.150;2024-03-02T03:23:38;1.63;;;0.98;;
20832;SDS011;56075;51.264;7.150;2024-03-02T03:26:09;2.08;;;1.00;;
20832;SDS011;56075;51.264;7.150;2024-03-02T03:28:40;1.88;;;0.77;;
20832;SDS011;56075;51.264;7.150;2024-03-02T03:31:11;5.18;;;0.98;;
20832;SDS011;56075;51.264;7.150;2024-03-02T03:33:42;1.75;;;1.00;;
20832;SDS011;56075;51.264;7.150;2024-03-02T03:36:13;2.72;;;1.00;;
20832;SDS011;56075;51.264;7.150;2024-03-02T03:38:45;3.95;;;1.30;;
20832;SDS011;56075;51.264;7.150;2024-03-02T03:41:16;3.05;;;1.00;;
20832;SDS011;56075;51.264;7.150;2024-03-02T03:43:47;2.13;;;0.82;;
20832;SDS011;56075;51.264;7.150;2024-03-02T03:46:18;1.40;;;0.80;;
20832;SDS011;56075;51.264;7.150;2024-03-02T03:48:49;3.10;;;0.90;;
20832;SDS011;56075;51.264;7.150;2024-03-02T03:51:21;3.17;;;0.90;;
20832;SDS011;56075;51.264;7.150;2024-03-02T03:53:55;2.23;;;1.00;;
20832;SDS011;56075;51.264;7.150;2024-03-02T03:56:26;2.35;;;0.90;;
20832;SDS011;56075;51.264;7.150;2024-03-02T03:58:57;2.40;;;1.00;;
20832;SDS011;56075;51.264;7.150;2024-03-02T04:01:30;2.38;;;1.10;;
20832;SDS011;56075;51.264;7.150;2024-03-02T04:04:02;3.07;;;1.20;;
20832;SDS011;56075;51.264;7.150;2024-03-02T04:06:34;1.95;;;1.00;;
20832;SDS011;56075;51.264;7.150;2024-03-02T04:09:05;2.13;;;0.90;;
20832;SDS011;56075;51.264;7.150;2024-03-02T04:11:36;3.47;;;1.23;;
20832;SDS011;56075;51.264;7.150;2024-03-02T04:14:07;2.88;;;1.00;;
20832;SDS011;56075;51.264;7.150;2024-03-02T04:16:38;2.60;;;1.10;;
20832;SDS011;56075;51.264;7.150;2024-03-02T04:19:09;2.20;;;1.00;;
20832;SDS011;56075;51.264;7.150;2024-03-02T04:21:40;2.00;;;1.00;;
20832;SDS011;56075;51.264;7.150;2024-03-02T04:24:12;2.27;;;1.00;;
20832;SDS011;56075;51.264;7.150;2024-03-02T04:26:43;3.60;;;1.08;;
20832;SDS011;56075;51.264;7.150;2024-03-02T04:29:14;3.83;;;1.20;;
20832;SDS011;56075;51.264;7.150;2024-03-02T04:31:45;2.60;;;1.02;;
20832;SDS011;56075;51.264;7.150;2024-03-02T04:34:16;5.18;;;1.30;;
20832;SDS011;56075;51.264;7.150;2024-03-02T04:36:47;1.92;;;1.10;;
20832;SDS011;56075;51.264;7.150;2024-03-02T04:39:19;1.85;;;1.00;;
20832;SDS011;56075;51.264;7.150;2024-03-02T04:41:50;1.80;;;1.00;;
20832;SDS011;56075;51.264;7.150;2024-03-02T04:44:21;3.00;;;1.07;;
20832;SDS011;56075;51.264;7.150;2024-03-02T04:46:53;2.30;;;1.00;;
20832;SDS011;56075;51.264;7.150;2024-03-02T04:49:24;2.37;;;1.13;;
20832;SDS011;56075;51.264;7.150;2024-03-02T04:51:55;1.80;;;1.00;;
20832;SDS011;56075;51.264;7.150;2024-03-02T04:54:27;2.30;;;1.10;;
20832;SDS011;56075;51.264;7.150;2024-03-02T04:56:58;2.38;;;1.00;;
20832;SDS011;56075;51.264;7.150;2024-03-02T04:59:29;2.55;;;1.10;;
20832;SDS011;56075;51.264;7.150;2024-03-02T05:02:01;3.70;;;1.37;;
20832;SDS011;56075;51.264;7.150;2024-03-02T05:04:32;1.90;;;1.10;;
20832;SDS011;56075;51.264;7.150;2024-03-02T05:07:05;2.73;;;1.13;;
20832;SDS011;56075;51.264;7.150;2024-03-02T05:09:36;2.90;;;1.40;;
20832;SDS011;56075;51.264;7.150;2024-03-02T05:12:07;3.87;;;1.20;;
20832;SDS011;56075;51.264;7.150;2024-03-02T05:14:47;4.25;;;1.20;;
20832;SDS011;56075;51.264;7.150;2024-03-02T05:17:18;2.20;;;1.10;;
20832;SDS011;56075;51.264;7.150;2024-03-02T05:19:50;2.05;;;1.27;;
20832;SDS011;56075;51.264;7.150;2024-03-02T05:22:21;2.57;;;1.30;;
20832;SDS011;56075;51.264;7.150;2024-03-02T05:24:52;2.40;;;1.30;;
20832;SDS011;56075;51.264;7.150;2024-03-02T05:27:24;3.40;;;1.50;;
20832;SDS011;56075;51.264;7.150;2024-03-02T05:29:55;2.57;;;1.30;;
20832;SDS011;56075;51.264;7.150;2024-03-02T05:32:26;2.43;;;1.37;;
20832;SDS011;56075;51.264;7.150;2024-03-02T05:34:57;3.03;;;1.30;;
20832;SDS011;56075;51.264;7.150;2024-03-02T05:37:28;2.83;;;1.20;;
20832;SDS011;56075;51.264;7.150;2024-03-02T05:40:00;3.27;;;1.20;;
20832;SDS011;56075;51.264;7.150;2024-03-02T05:42:31;2.60;;;1.20;;
20832;SDS011;56075;51.264;7.150;2024-03-02T05:45:02;3.10;;;1.37;;
20832;SDS011;56075;51.264;7.150;2024-03-02T05:47:34;2.37;;;1.17;;
20832;SDS011;56075;51.264;7.150;2024-03-02T05:50:06;3.00;;;1.43;;
20832;SDS011;56075;51.264;7.150;2024-03-02T05:52:37;4.30;;;1.60;;
20832;SDS011;56075;51.264;7.150;2024-03-02T05:55:09;2.57;;;1.20;;
20832;SDS011;56075;51.264;7.150;2024-03-02T05:57:40;3.43;;;1.73;;
20832;SDS011;56075;51.264;7.150;2024-03-02T06:00:14;5.00;;;1.87;;
20832;SDS011;56075;51.264;7.150;2024-03-02T06:02:47;3.87;;;1.40;;
20832;SDS011;56075;51.264;7.150;2024-03-02T06:05:18;4.97;;;1.77;;
20832;SDS011;56075;51.264;7.150;2024-03-02T06:07:50;3.07;;;1.43;;
20832;SDS011;56075;51.264;7.150;2024-03-02T06:10:21;5.67;;;1.87;;
20832;SDS011;56075;51.264;7.150;2024-03-02T06:12:52;4.37;;;1.70;;
20832;SDS011;56075;51.264;7.150;2024-03-02T06:15:23;3.50;;;1.57;;
20832;SDS011;56075;51.264;7.150;2024-03-02T06:17:55;4.17;;;1.77;;
20832;SDS011;56075;51.264;7.150;2024-03-02T06:20:26;7.43;;;2.00;;
20832;SDS011;56075;51.264;7.150;2024-03-02T06:22:58;3.63;;;1.77;;
20832;SDS011;56075;51.264;7.150;2024-03-02T06:25:29;3.83;;;1.87;;
20832;SDS011;56075;51.264;7.150;2024-03-02T06:28:00;4.17;;;1.90;;
20832;SDS011;56075;51.264;7.150;2024-03-02T06:30:31;3.97;;;2.20;;
20832;SDS011;56075;51.264;7.150;2024-03-02T06:33:02;5.43;;;2.10;;
20832;SDS011;56075;51.264;7.150;2024-03-02T06:35:34;4.63;;;2.03;;
20832;SDS011;56075;51.264;7.150;2024-03-02T06:38:06;8.00;;;2.13;;
20832;SDS011;56075;51.264;7.150;2024-03-02T06:40:37;5.20;;;2.30;;
20832;SDS011;56075;51.264;7.150;2024-03-02T06:43:10;5.50;;;2.03;;
20832;SDS011;56075;51.264;7.150;2024-03-02T06:45:41;4.77;;;2.30;;
20832;SDS011;56075;51.264;7.150;2024-03-02T06:48:12;5.00;;;2.07;;
20832;SDS011;56075;51.264;7.150;2024-03-02T06:50:48;6.40;;;2.30;;
20832;SDS011;56075;51.264;7.150;2024-03-02T06:53:20;4.00;;;1.93;;
20832;SDS011;56075;51.264;7.150;2024-03-02T06:55:53;4.50;;;2.20;;
20832;SDS011;56075;51.264;7.150;2024-03-02T06:58:24;9.50;;;3.00;;
20832;SDS011;56075;51.264;7.150;2024-03-02T07:00:55;6.37;;;2.30;;
20832;SDS011;56075;51.264;7.150;2024-03-02T07:03:27;4.10;;;2.40;;
20832;SDS011;56075;51.264;7.150;2024-03-02T07:05:58;7.20;;;2.17;;
20832;SDS011;56075;51.264;7.150;2024-03-02T07:08:29;4.90;;;2.10;;
20832;SDS011;56075;51.264;7.150;2024-03-02T07:11:00;4.83;;;1.97;;
20832;SDS011;56075;51.264;7.150;2024-03-02T07:13:31;12.70;;;2.33;;
20832;SDS011;56075;51.264;7.150;2024-03-02T07:16:03;3.57;;;2.00;;
20832;SDS011;56075;51.264;7.150;2024-03-02T07:18:34;5.13;;;2.30;;
20832;SDS011;56075;51.264;7.150;2024-03-02T07:21:11;4.57;;;2.27;;
20832;SDS011;56075;51.264;7.150;2024-03-02T07:23:42;4.00;;;2.00;;
20832;SDS011;56075;51.264;7.150;2024-03-02T07:26:14;5.00;;;2.00;;
20832;SDS011;56075;51.264;7.150;2024-03-02T07:28:46;4.37;;;2.00;;
20832;SDS011;56075;51.264;7.150;2024-03-02T07:31:21;5.53;;;2.00;;
20832;SDS011;56075;51.264;7.150;2024-03-02T07:33:52;4.00;;;2.00;;
20832;SDS011;56075;51.264;7.150;2024-03-02T07:36:24;5.30;;;2.00;;
20832;SDS011;56075;51.264;7.150;2024-03-02T07:38:55;6.60;;;2.03;;
20832;SDS011;56075;51.264;7.150;2024-03-02T07:41:27;6.23;;;2.10;;
20832;SDS011;56075;51.264;7.150;2024-03-02T07:43:58;5.03;;;1.90;;
20832;SDS011;56075;51.264;7.150;2024-03-02T07:46:29;5.60;;;2.13;;
20832;SDS011;56075;51.264;7.150;2024-03-02T07:49:00;5.03;;;1.80;;
20832;SDS011;56075;51.264;7.150;2024-03-02T07:51:31;3.23;;;2.10;;
20832;SDS011;56075;51.264;7.150;2024-03-02T07:54:03;4.57;;;2.20;;
20832;SDS011;56075;51.264;7.150;2024-03-02T07:56:34;3.60;;;1.70;;
20832;SDS011;56075;51.264;7.150;2024-03-02T07:59:06;4.57;;;2.20;;
20832;SDS011;56075;51.264;7.150;2024-03-02T08:01:37;4.63;;;2.10;;
20832;SDS011;56075;51.264;7.150;2024-03-02T08:04:09;5.43;;;2.00;;
20832;SDS011;56075;51.264;7.150;2024-03-02T08:06:40;5.03;;;1.90;;
20832;SDS011;56075;51.264;7.150;2024-03-02T08:09:11;3.00;;;1.60;;
20832;SDS011;56075;51.264;7.150;2024-03-02T08:11:42;3.47;;;1.70;;
20832;SDS011;56075;51.264;7.150;2024-03-02T08:14:13;3.40;;;1.47;;
20832;SDS011;56075;51.264;7.150;2024-03-02T08:16:44;2.67;;;1.70;;
20832;SDS011;56075;51.264;7.150;2024-03-02T08:19:16;4.73;;;1.90;;
20832;SDS011;56075;51.264;7.150;2024-03-02T08:21:47;3.30;;;1.50;;
20832;SDS011;56075;51.264;7.150;2024-03-02T08:24:18;4.13;;;2.00;;
20832;SDS011;56075;51.264;7.150;2024-03-02T08:26:49;4.03;;;1.55;;
20832;SDS011;56075;51.264;7.150;2024-03-02T08:29:20;6.18;;;1.40;;
20832;SDS011;56075;51.264;7.150;2024-03-02T08:31:52;6.13;;;1.83;;
20832;SDS011;56075;51.264;7.150;2024-03-02T08:34:24;3.70;;;1.90;;
20832;SDS011;56075;51.264;7.150;2024-03-02T08:36:55;2.30;;;1.30;;
20832;SDS011;56075;51.264;7.150;2024-03-02T08:39:26;3.07;;;1.53;;
20832;SDS011;56075;51.264;7.150;2024-03-02T08:41:57;4.03;;;1.58;;
20832;SDS011;56075;51.264;7.150;2024-03-02T08:44:28;3.08;;;1.42;;
20832;SDS011;56075;51.264;7.150;2024-03-02T08:46:59;4.03;;;1.35;;
20832;SDS011;56075;51.264;7.150;2024-03-02T08:49:31;3.75;;;1.27;;
20832;SDS011;56075;51.264;7.150;2024-03-02T08:52:02;8.00;;;2.38;;
20832;SDS011;56075;51.264;7.150;2024-03-02T08:54:33;3.90;;;1.35;;
20832;SDS011;56075;51.264;7.150;2024-03-02T08:57:06;3.53;;;1.42;;
20832;SDS011;56075;51.264;7.150;2024-03-02T08:59:37;2.80;;;1.58;;
20832;SDS011;56075;51.264;7.150;2024-03-02T09:02:09;5.22;;;1.30;;
20832;SDS011;56075;51.264;7.150;2024-03-02T09:04:41;3.88;;;1.60;;
20832;SDS011;56075;51.264;7.150;2024-03-02T09:07:12;3.67;;;1.40;;
20832;SDS011;56075;51.264;7.150;2024-03-02T09:09:43;3.63;;;1.50;;
20832;SDS011;56075;51.264;7.150;2024-03-02T09:12:14;4.18;;;1.50;;
20832;SDS011;56075;51.264;7.150;2024-03-02T09:14:45;3.72;;;1.40;;
20832;SDS011;56075;51.264;7.150;2024-03-02T09:17:17;2.92;;;1.23;;
20832;SDS011;56075;51.264;7.150;2024-03-02T09:19:48;3.33;;;1.67;;
20832;SDS011;56075;51.264;7.150;2024-03-02T09:22:23;6.80;;;1.20;;
20832;SDS011;56075;51.264;7.150;2024-03-02T09:24:54;1.88;;;1.00;;
20832;SDS011;56075;51.264;7.150;2024-03-02T09:27:25;3.05;;;1.00;;
20832;SDS011;56075;51.264;7.150;2024-03-02T09:29:56;4.60;;;1.30;;
20832;SDS011;56075;51.264;7.150;2024-03-02T09:32:27;4.20;;;1.10;;
20832;SDS011;56075;51.264;7.150;2024-03-02T09:34:58;3.17;;;1.20;;
20832;SDS011;56075;51.264;7.150;2024-03-02T09:37:29;3.63;;;1.23;;
20832;SDS011;56075;51.264;7.150;2024-03-02T09:40:01;2.95;;;1.00;;
20832;SDS011;56075;51.264;7.150;2024-03-02T09:42:32;2.05;;;1.00;;
20832;SDS011;56075;51.264;7.150;2024-03-02T09:45:04;3.50;;;0.90;;
20832;SDS011;56075;51.264;7.150;2024-03-02T09:47:36;4.03;;;1.00;;
20832;SDS011;56075;51.264;7.150;2024-03-02T09:50:07;3.17;;;1.05;;
20832;SDS011;56075;51.264;7.150;2024-03-02T09:52:39;2.95;;;1.10;;
20832;SDS011;56075;51.264;7.150;2024-03-02T09:55:12;4.05;;;1.20;;
20832;SDS011;56075;51.264;7.150;2024-03-02T09:57:45;2.28;;;1.08;;
20832;SDS011;56075;51.264;7.150;2024-03-02T10:00:17;2.38;;;1.08;;
20832;SDS011;56075;51.264;7.150;2024-03-02T10:02:48;3.58;;;1.10;;
20832;SDS011;56075;51.264;7.150;2024-03-02T10:05:25;2.33;;;1.02;;
20832;SDS011;56075;51.264;7.150;2024-03-02T10:08:01;3.13;;;0.90;;
20832;SDS011;56075;51.264;7.150;2024-03-02T10:10:37;2.63;;;1.20;;
20832;SDS011;56075;51.264;7.150;2024-03-02T10:13:12;2.67;;;0.98;;
20832;SDS011;56075;51.264;7.150;2024-03-02T10:15:44;2.83;;;1.13;;
20832;SDS011;56075;51.264;7.150;2024-03-02T10:18:15;2.80;;;0.95;;
20832;SDS011;56075;51.264;7.150;2024-03-02T10:21:04;1.42;;;0.77;;
20832;SDS011;56075;51.264;7.150;2024-03-02T10:23:44;2.20;;;0.80;;
20832;SDS011;56075;51.264;7.150;2024-03-02T10:26:18;2.47;;;1.00;;
20832;SDS011;56075;51.264;7.150;2024-03-02T10:28:49;1.95;;;0.80;;
20832;SDS011;56075;51.264;7.150;2024-03-02T10:31:22;2.40;;;0.75;;
20832;SDS011;56075;51.264;7.150;2024-03-02T10:33:58;2.08;;;0.90;;
20832;SDS011;56075;51.264;7.150;2024-03-02T10:36:30;1.80;;;0.75;;
20832;SDS011;56075;51.264;7.150;2024-03-02T10:39:04;2.30;;;0.80;;
20832;SDS011;56075;51.264;7.150;2024-03-02T10:41:37;1.48;;;0.80;;
20832;SDS011;56075;51.264;7.150;2024-03-02T10:44:09;1.33;;;0.60;;
20832;SDS011;56075;51.264;7.150;2024-03-02T10:46:40;2.00;;;0.82;;
20832;SDS011;56075;51.264;7.150;2024-03-02T10:49:11;2.28;;;0.98;;
20832;SDS011;56075;51.264;7.150;2024-03-02T10:51:43;2.10;;;1.08;;
20832;SDS011;56075;51.264;7.150;2024-03-02T10:54:14;3.25;;;1.00;;
20832;SDS011;56075;51.264;7.150;2024-03-02T10:56:45;4.35;;;0.77;;
20832;SDS011;56075;51.264;7.150;2024-03-02T11:02:04;2.55;;;0.93;;
20832;SDS011;56075;51.264;7.150;2024-03-02T11:04:38;3.40;;;0.90;;
20832;SDS011;56075;51.264;7.150;2024-03-02T11:07:12;1.52;;;0.77;;
20832;SDS011;56075;51.264;7.150;2024-03-02T11:09:54;2.20;;;0.90;;
20832;SDS011;56075;51.264;7.150;2024-03-02T11:12:31;6.07;;;1.42;;
20832;SDS011;56075;51.264;7.150;2024-03-02T11:15:11;6.65;;;1.15;;
20832;SDS011;56075;51.264;7.150;2024-03-02T11:17:48;2.30;;;1.10;;
20832;SDS011;56075;51.264;7.150;2024-03-02T11:20:20;2.45;;;0.82;;
20832;SDS011;56075;51.264;7.150;2024-03-02T11:22:52;1.80;;;0.75;;
20832;SDS011;56075;51.264;7.150;2024-03-02T11:25:23;3.00;;;0.88;;
20832;SDS011;56075;51.264;7.150;2024-03-02T11:33:05;3.25;;;1.23;;
20832;SDS011;56075;51.264;7.150;2024-03-02T11:35:40;1.50;;;0.80;;
20832;SDS011;56075;51.264;7.150;2024-03-02T11:38:18;2.90;;;0.90;;
20832;SDS011;56075;51.264;7.150;2024-03-02T11:40:50;2.03;;;0.88;;
20832;SDS011;56075;51.264;7.150;2024-03-02T11:43:21;2.47;;;1.00;;
20832;SDS011;56075;51.264;7.150;2024-03-02T11:45:57;1.90;;;1.13;;
20832;SDS011;56075;51.264;7.150;2024-03-02T11:48:29;3.88;;;1.00;;
20832;SDS011;56075;51.264;7.150;2024-03-02T11:51:01;2.70;;;1.00;;
20832;SDS011;56075;51.264;7.150;2024-03-02T11:53:32;1.75;;;1.17;;
20832;SDS011;56075;51.264;7.150;2024-03-02T11:56:06;4.15;;;1.05;;
20832;SDS011;56075;51.264;7.150;2024-03-02T11:58:40;3.50;;;1.00;;
20832;SDS011;56075;51.264;7.150;2024-03-02T12:01:12;2.50;;;0.93;;
20832;SDS011;56075;51.264;7.150;2024-03-02T12:03:43;3.88;;;1.13;;
20832;SDS011;56075;51.264;7.150;2024-03-02T12:06:16;2.35;;;1.20;;
20832;SDS011;56075;51.264;7.150;2024-03-02T12:08:51;2.95;;;1.00;;
20832;SDS011;56075;51.264;7.150;2024-03-02T12:11:24;2.38;;;1.10;;
20832;SDS011;56075;51.264;7.150;2024-03-02T12:13:55;2.38;;;0.90;;
20832;SDS011;56075;51.264;7.150;2024-03-02T12:16:27;2.17;;;0.80;;
20832;SDS011;56075;51.264;7.150;2024-03-02T12:18:59;2.03;;;0.73;;
20832;SDS011;56075;51.264;7.150;2024-03-02T12:21:30;0.77;;;0.55;;
20832;SDS011;56075;51.264;7.150;2024-03-02T12:24:01;1.85;;;0.75;;
20832;SDS011;56075;51.264;7.150;2024-03-02T12:26:33;3.25;;;0.85;;
20832;SDS011;56075;51.264;7.150;2024-03-02T12:29:04;1.17;;;0.75;;
20832;SDS011;56075;51.264;7.150;2024-03-02T12:31:35;1.42;;;0.60;;
20832;SDS011;56075;51.264;7.150;2024-03-02T12:34:07;2.20;;;0.80;;
20832;SDS011;56075;51.264;7.150;2024-03-02T12:36:39;1.58;;;0.70;;
20832;SDS011;56075;51.264;7.150;2024-03-02T12:39:12;3.97;;;0.88;;
20832;SDS011;56075;51.264;7.150;2024-03-02T12:41:43;1.10;;;0.57;;
20832;SDS011;56075;51.264;7.150;2024-03-02T12:44:15;0.85;;;0.60;;
20832;SDS011;56075;51.264;7.150;2024-03-02T12:46:47;1.67;;;0.55;;
20832;SDS011;56075;51.264;7.150;2024-03-02T12:49:21;2.13;;;0.70;;
20832;SDS011;56075;51.264;7.150;2024-03-02T12:51:53;0.98;;;0.60;;
20832;SDS011;56075;51.264;7.150;2024-03-02T12:54:24;1.50;;;0.70;;
20832;SDS011;56075;51.264;7.150;2024-03-02T12:56:57;2.03;;;0.55;;
20832;SDS011;56075;51.264;7.150;2024-03-02T12:59:28;2.55;;;0.75;;
20832;SDS011;56075;51.264;7.150;2024-03-02T13:01:59;2.05;;;0.70;;
20832;SDS011;56075;51.264;7.150;2024-03-02T13:04:32;3.03;;;0.90;;
20832;SDS011;56075;51.264;7.150;2024-03-02T13:07:03;1.20;;;0.50;;
20832;SDS011;56075;51.264;7.150;2024-03-02T13:09:34;1.00;;;0.70;;
20832;SDS011;56075;51.264;7.150;2024-03-02T13:12:05;1.20;;;0.70;;
20832;SDS011;56075;51.264;7.150;2024-03-02T13:14:37;1.10;;;0.60;;
20832;SDS011;56075;51.264;7.150;2024-03-02T13:17:08;3.13;;;0.80;;
20832;SDS011;56075;51.264;7.150;2024-03-02T13:19:50;1.27;;;0.57;;
20832;SDS011;56075;51.264;7.150;2024-03-02T13:22:27;6.32;;;1.02;;
20832;SDS011;56075;51.264;7.150;2024-03-02T13:24:58;3.63;;;1.60;;
20832;SDS011;56075;51.264;7.150;2024-03-02T13:27:32;2.50;;;0.80;;
20832;SDS011;56075;51.264;7.150;2024-03-02T13:30:03;1.55;;;0.65;;
20832;SDS011;56075;51.264;7.150;2024-03-02T13:32:36;1.52;;;0.60;;
20832;SDS011;56075;51.264;7.150;2024-03-02T13:35:07;1.30;;;0.60;;
20832;SDS011;56075;51.264;7.150;2024-03-02T13:37:41;0.93;;;0.60;;
20832;SDS011;56075;51.264;7.150;2024-03-02T13:40:12;2.30;;;0.73;;
20832;SDS011;56075;51.264;7.150;2024-03-02T13:42:48;2.95;;;0.60;;
20832;SDS011;56075;51.264;7.150;2024-03-02T13:45:21;1.05;;;0.60;;
20832;SDS011;56075;51.264;7.150;2024-03-02T13:47:52;0.52;;;0.50;;
20832;SDS011;56075;51.264;7.150;2024-03-02T13:50:24;0.98;;;0.50;;
20832;SDS011;56075;51.264;7.150;2024-03-02T13:52:55;1.92;;;0.60;;
20832;SDS011;56075;51.264;7.150;2024-03-02T13:55:27;2.58;;;0.73;;
20832;SDS011;56075;51.264;7.150;2024-03-02T13:57:58;0.90;;;0.70;;
20832;SDS011;56075;51.264;7.150;2024-03-02T14:00:30;2.47;;;0.77;;
20832;SDS011;56075;51.264;7.150;2024-03-02T14:03:01;1.20;;;0.70;;
20832;SDS011;56075;51.264;7.150;2024-03-02T14:05:34;1.42;;;0.60;;
20832;SDS011;56075;51.264;7.150;2024-03-02T14:08:05;2.97;;;1.52;;
20832;SDS011;56075;51.264;7.150;2024-03-02T14:10:36;1.55;;;0.85;;
20832;SDS011;56075;51.264;7.150;2024-03-02T14:13:07;1.73;;;0.50;;
20832;SDS011;56075;51.264;7.150;2024-03-02T14:15:38;2.90;;;0.70;;
20832;SDS011;56075;51.264;7.150;2024-03-02T14:18:10;1.90;;;0.70;;
20832;SDS011;56075;51.264;7.150;2024-03-02T14:20:41;1.60;;;0.80;;
20832;SDS011;56075;51.264;7.150;2024-03-02T14:23:13;1.55;;;0.60;;
20832;SDS011;56075;51.264;7.150;2024-03-02T14:25:44;1.33;;;0.57;;
20832;SDS011;56075;51.264;7.150;2024-03-02T14:28:16;2.00;;;0.60;;
20832;SDS011;56075;51.264;7.150;2024-03-02T14:30:47;1.20;;;0.70;;
20832;SDS011;56075;51.264;7.150;2024-03-02T14:33:18;1.83;;;0.60;;
20832;SDS011;56075;51.264;7.150;2024-03-02T14:35:49;0.77;;;0.60;;
20832;SDS011;56075;51.264;7.150;2024-03-02T14:38:20;0.82;;;0.60;;
20832;SDS011;56075;51.264;7.150;2024-03-02T14:40:51;2.08;;;0.60;;
20832;SDS011;56075;51.264;7.150;2024-03-02T14:43:22;2.38;;;0.80;;
20832;SDS011;56075;51.264;7.150;2024-03-02T14:45:53;1.90;;;0.82;;
20832;SDS011;56075;51.264;7.150;2024-03-02T14:48:25;2.60;;;0.80;;
20832;SDS011;56075;51.264;7.150;2024-03-02T14:50:56;1.75;;;0.70;;
20832;SDS011;56075;51.264;7.150;2024-03-02T14:53:28;1.42;;;0.90;;
20832;SDS011;56075;51.264;7.150;2024-03-02T14:55:59;3.15;;;0.80;;
20832;SDS011;56075;51.264;7.150;2024-03-02T14:58:30;0.90;;;0.68;;
20832;SDS011;56075;51.264;7.150;2024-03-02T15:01:01;1.08;;;0.60;;
20832;SDS011;56075;51.264;7.150;2024-03-02T15:03:33;1.73;;;0.98;;
20832;SDS011;56075;51.264;7.150;2024-03-02T15:06:05;3.78;;;2.00;;
20832;SDS011;56075;51.264;7.150;2024-03-02T15:08:38;1.50;;;0.90;;
20832;SDS011;56075;51.264;7.150;2024-03-02T15:11:12;2.35;;;0.88;;
20832;SDS011;56075;51.264;7.150;2024-03-02T15:13:43;1.60;;;0.80;;
20832;SDS011;56075;51.264;7.150;2024-03-02T15:16:14;1.45;;;0.80;;
20832;SDS011;56075;51.264;7.150;2024-03-02T15:18:45;1.17;;;0.70;;
20832;SDS011;56075;51.264;7.150;2024-03-02T15:21:16;0.80;;;0.60;;
20832;SDS011;56075;51.264;7.150;2024-03-02T15:23:49;1.25;;;0.70;;